tititudorancea.com
Station Historical Data
Daily Summary for February 7, 2018 Units:  Metric    English   Both
« Previous Day
Next Day »
Daily Weekly Monthly Yearly Custom
  High: Low: Average:
Temperature: -17.8 °C 14.9 °C 26.9 °C
Dew Point: -17.8 °C 5.7 °C 9.7 °C
Humidity: Humidity % 15 % 40 %
Wind Speed: 0 km/h 0 km/h 5.8 km/h
Wind Gust: 0 km/h - -
Wind:- - SSW
Pressure: 0 hPa 1008 hPa -
Precipitation: 0 mm    
Historical Graphs
 
 
Ararat weather Find more about Weather in Ararat, AU


 



 


Tabular Data for February 7, 2018
Time Temperature Dew Point Pressure Wind Wind Speed Wind Gust Humidity Rainfall Rate (Hourly)
-17.8 °C -17.8 °C 0 hPa Calm     Humidity % 0 mm
00:00 21.5 °C 12.3 °C 1013.1 hPa South 7.1 km/h 11.1 km/h 56 % 0 mm
00:05 21.4 °C 12.5 °C 1013.1 hPa South 7.6 km/h 11.1 km/h 57 % 0 mm
00:10 21.2 °C 12.6 °C 1013.1 hPa South 7.9 km/h 9.7 km/h 58 % 0 mm
00:15 21.2 °C 12.9 °C 1013.1 hPa South 4.7 km/h 7.4 km/h 59 % 0 mm
00:20 21.2 °C 12.8 °C 1013.1 hPa South 5 km/h 7.4 km/h 59 % 0 mm
00:25 21.1 °C 12.7 °C 1013.1 hPa South 6.1 km/h 8 km/h 59 % 0 mm
00:30 20.9 °C 12.9 °C 1013.1 hPa South 6.4 km/h 7.4 km/h 60 % 0 mm
00:35 20.9 °C 12.8 °C 1012.8 hPa South 6 km/h 8 km/h 60 % 0 mm
00:40 20.8 °C 12.7 °C 1012.8 hPa South 4.8 km/h 8 km/h 60 % 0 mm
00:45 20.7 °C 12.7 °C 1012.8 hPa South 5.1 km/h 7.4 km/h 60 % 0 mm
00:50 20.7 °C 12.9 °C 1012.8 hPa South 5.5 km/h 7.4 km/h 61 % 0 mm
00:55 20.6 °C 12.8 °C 1012.8 hPa South 7.4 km/h 9.3 km/h 61 % 0 mm
01:00 20.5 °C 12.7 °C 1012.8 hPa South 5 km/h 7.4 km/h 61 % 0 mm
01:05 20.5 °C 12.7 °C 1012.8 hPa North 5.1 km/h 7.4 km/h 61 % 0 mm
01:10 20.5 °C 12.7 °C 1012.8 hPa South 5.6 km/h 9.3 km/h 61 % 0 mm
01:15 20.4 °C 12.7 °C 1012.8 hPa South 5.8 km/h 7.4 km/h 61 % 0 mm
01:20 20.4 °C 12.6 °C 1012.8 hPa South 4.5 km/h 7.4 km/h 61 % 0 mm
01:25 20.3 °C 12.6 °C 1012.4 hPa South 6.1 km/h 7.4 km/h 61 % 0 mm
01:30 20.4 °C 12.6 °C 1012.4 hPa South 7.7 km/h 9.7 km/h 61 % 0 mm
01:35 20.6 °C 12.5 °C 1012.4 hPa South 6.1 km/h 11.3 km/h 60 % 0 mm
01:40 20.6 °C 12.6 °C 1012.4 hPa South 4.5 km/h 5.6 km/h 60 % 0 mm
01:45 20.6 °C 12.6 °C 1012.4 hPa South 3.7 km/h 5.6 km/h 60 % 0 mm
01:50 20.6 °C 12.6 °C 1012.4 hPa South 5.1 km/h 7.4 km/h 60 % 0 mm
01:55 20.6 °C 12.6 °C 1012.4 hPa South 6.6 km/h 7.4 km/h 60 % 0 mm
02:00 20.6 °C 12.6 °C 1012.4 hPa South 5.5 km/h 9.7 km/h 60 % 0 mm
02:05 20.7 °C 12.6 °C 1012.4 hPa South 8.5 km/h 16.7 km/h 60 % 0 mm
02:10 20.8 °C 12.5 °C 1012.4 hPa South 6.8 km/h 9.3 km/h 59 % 0 mm
02:15 20.9 °C 12.6 °C 1012.4 hPa South 6 km/h 7.4 km/h 59 % 0 mm
02:20 20.9 °C 12.6 °C 1012.4 hPa South 3.4 km/h 9.3 km/h 59 % 0 mm
02:25 20.9 °C 12.6 °C 1012.1 hPa South 4.8 km/h 5.6 km/h 59 % 0 mm
02:30 20.8 °C 12.5 °C 1012.1 hPa South 4.3 km/h 5.6 km/h 59 % 0 mm
02:35 20.8 °C 12.4 °C 1012.1 hPa South 5.3 km/h 7.4 km/h 59 % 0 mm
02:40 20.8 °C 12.4 °C 1012.1 hPa South 6.1 km/h 7.4 km/h 59 % 0 mm
02:45 20.8 °C 12.5 °C 1012.1 hPa South 1.9 km/h 5.6 km/h 59 % 0 mm
02:50 20.9 °C 12.6 °C 1012.1 hPa South 5.1 km/h 5.6 km/h 59 % 0 mm
02:55 20.8 °C 12.3 °C 1011.7 hPa South 3.7 km/h 5.6 km/h 58 % 0 mm
03:00 20.9 °C 12.3 °C 1011.7 hPa South 4 km/h 5.6 km/h 58 % 0 mm
03:05 20.8 °C 12.3 °C 1011.7 hPa South 5.8 km/h 8 km/h 58 % 0 mm
03:10 20.8 °C 12.2 °C 1011.7 hPa South 0.2 km/h 5.6 km/h 58 % 0 mm
03:15 20.7 °C 12.1 °C 1011.4 hPa South 1.9 km/h 5.6 km/h 58 % 0 mm
03:20 20.5 °C 12.2 °C 1011.4 hPa South 3.1 km/h 5.6 km/h 59 % 0 mm
03:25 20.4 °C 12.2 °C 1011.4 hPa South 0.5 km/h 1.9 km/h 59 % 0 mm
03:30 20.3 °C 12 °C 1011.4 hPa South 4.5 km/h 7.4 km/h 59 % 0 mm
03:35 20.2 °C 12.2 °C 1011.4 hPa Calm     60 % 0 mm
03:40 20 °C 12 °C 1011.4 hPa South 3.1 km/h 5.6 km/h 60 % 0 mm
03:45 19.9 °C 11.9 °C 1011.4 hPa South 1.9 km/h 1.9 km/h 60 % 0 mm
03:50 19.8 °C 11.8 °C 1011.4 hPa South 0.3 km/h 1.9 km/h 60 % 0 mm
03:55 19.8 °C 11.8 °C 1011.1 hPa South 4 km/h 5.6 km/h 60 % 0 mm
04:00 19.8 °C 11.8 °C 1011.1 hPa North 3.5 km/h 5.6 km/h 60 % 0 mm
04:05 19.7 °C 11.9 °C 1011.1 hPa Calm   3.7 km/h 61 % 0 mm
04:10 19.5 °C 11.8 °C 1011.1 hPa South 0.6 km/h 1.9 km/h 61 % 0 mm
04:15 19.3 °C 11.6 °C 1011.1 hPa Calm   1.9 km/h 61 % 0 mm
04:20 19.1 °C 11.8 °C 1011.1 hPa Calm     63 % 0 mm
04:25 18.7 °C 11.8 °C 1011.1 hPa Calm     64 % 0 mm
04:30 18.4 °C 11.9 °C 1011.1 hPa Calm     66 % 0 mm
04:35 18.2 °C 11.7 °C 1011.1 hPa Calm     66 % 0 mm
04:40 17.8 °C 11.8 °C 1011.1 hPa Calm     68 % 0 mm
04:45 17.6 °C 11.6 °C 1010.7 hPa Calm     68 % 0 mm
04:50 17.4 °C 11.7 °C 1010.7 hPa Calm     69 % 0 mm
04:55 17.2 °C 11.7 °C 1011.1 hPa Calm     70 % 0 mm
05:00 17.1 °C 11.6 °C 1011.1 hPa Calm     70 % 0 mm
05:05 16.8 °C 11.3 °C 1010.7 hPa Calm     70 % 0 mm
05:10 16.7 °C 11.4 °C 1011.1 hPa Calm     71 % 0 mm
05:15 16.5 °C 11.4 °C 1011.1 hPa Calm     72 % 0 mm
05:20 16.4 °C 11.3 °C 1011.1 hPa Calm     72 % 0 mm
05:25 16.3 °C 11.7 °C 1011.1 hPa Calm     74 % 0 mm
05:30 16.3 °C 11.6 °C 1010.7 hPa Calm     74 % 0 mm
05:35 16.2 °C 11.8 °C 1011.1 hPa Calm     75 % 0 mm
05:40 16.1 °C 11.6 °C 1011.1 hPa Calm     75 % 0 mm
05:45 15.8 °C 11.6 °C 1011.1 hPa Calm     76 % 0 mm
05:50 15.7 °C 11.7 °C 1011.1 hPa Calm     77 % 0 mm
05:55 15.6 °C 12 °C 1011.1 hPa Calm     79 % 0 mm
06:00 15.6 °C 12 °C 1011.1 hPa Calm     79 % 0 mm
06:05 15.4 °C 12 °C 1011.1 hPa Calm     80 % 0 mm
06:10 15.4 °C 12.2 °C 1011.1 hPa Calm     81 % 0 mm
06:15 15.3 °C 12.1 °C 1011.1 hPa Calm     81 % 0 mm
06:20 15.3 °C 12.1 °C 1011.1 hPa Calm     81 % 0 mm
06:25 15.2 °C 12 °C 1011.1 hPa Calm     81 % 0 mm
06:30 15.1 °C 11.9 °C 1011.1 hPa Calm     81 % 0 mm
06:35 15 °C 11.8 °C 1011.1 hPa Calm     81 % 0 mm
06:40 14.9 °C 11.8 °C 1011.1 hPa Calm     82 % 0 mm
06:45 14.9 °C 12 °C 1011.1 hPa Calm     83 % 0 mm
06:50 14.9 °C 12 °C 1011.1 hPa Calm     83 % 0 mm
06:55 14.9 °C 12 °C 1011.4 hPa Calm     83 % 0 mm
07:00 14.9 °C 12 °C 1011.1 hPa Calm     83 % 0 mm
07:05 14.9 °C 11.8 °C 1011.4 hPa Calm     82 % 0 mm
07:11 14.9 °C 11.8 °C 1011.4 hPa Calm     82 % 0 mm
07:16 15 °C 11.9 °C 1011.4 hPa Calm     82 % 0 mm
07:21 15.1 °C 12.1 °C 1011.4 hPa Calm     82 % 0 mm
07:26 15.1 °C 12.1 °C 1011.7 hPa Calm     82 % 0 mm
07:31 15.2 °C 12.2 °C 1011.7 hPa Calm     82 % 0 mm
07:36 15.4 °C 12.2 °C 1011.7 hPa South 0.5 km/h 1.9 km/h 81 % 0 mm
07:41 15.8 °C 12.3 °C 1011.7 hPa South 3.4 km/h 5.6 km/h 80 % 0 mm
07:46 16.3 °C 12.6 °C 1011.7 hPa South 1.8 km/h 5.6 km/h 79 % 0 mm
07:51 17 °C 12.7 °C 1011.7 hPa South 3.5 km/h 5.6 km/h 76 % 0 mm
07:56 17.7 °C 12.8 °C 1012.1 hPa South 3.2 km/h 5.6 km/h 73 % 0 mm
08:01 18.4 °C 12.9 °C 1012.1 hPa South 2.7 km/h 5.6 km/h 70 % 0 mm
08:06 19.3 °C 13.1 °C 1012.1 hPa South 5.3 km/h 7.4 km/h 67 % 0 mm
08:11 20.8 °C 13 °C 1012.1 hPa South 2.4 km/h 3.7 km/h 61 % 0 mm
08:16 21.9 °C 12.5 °C 1012.1 hPa South 1.3 km/h 3.7 km/h 55 % 0 mm
08:21 22.7 °C 12.3 °C 1012.1 hPa South 3.2 km/h 5.6 km/h 52 % 0 mm
08:26 23.4 °C 12.1 °C 1012.1 hPa South 5.1 km/h 5.6 km/h 49 % 0 mm
08:31 24 °C 12 °C 1012.1 hPa South 2.9 km/h 5.6 km/h 47 % 0 mm
08:36 24.4 °C 12.1 °C 1012.1 hPa South 4 km/h 5.6 km/h 46 % 0 mm
08:41 24.9 °C 12.1 °C 1012.1 hPa South 4.7 km/h 5.6 km/h 45 % 0 mm
08:46 25.3 °C 12.2 °C 1012.1 hPa WNW 5.6 km/h 8 km/h 44 % 0 mm
08:51 25.7 °C 11.8 °C 1012.1 hPa NW 5.3 km/h 9.3 km/h 42 % 0 mm
08:56 26 °C 11.3 °C 1012.1 hPa NNE 11.1 km/h 14.8 km/h 40 % 0 mm
09:01 26.4 °C 11.3 °C 1012.1 hPa NNE 9.3 km/h 14.8 km/h 39 % 0 mm
09:06 26.7 °C 11.2 °C 1012.1 hPa NNE 7.9 km/h 16.1 km/h 38 % 0 mm
09:11 26.9 °C 11.4 °C 1012.4 hPa NNE 4 km/h 11.3 km/h 38 % 0 mm
09:16 27.2 °C 10.8 °C 1012.4 hPa NNE 10.8 km/h 16.7 km/h 36 % 0 mm
09:21 27.3 °C 10.9 °C 1012.4 hPa NNE 8.9 km/h 9.7 km/h 36 % 0 mm
09:26 27.4 °C 11.1 °C 1012.4 hPa NNE 8 km/h 9.3 km/h 36 % 0 mm
09:31 27.6 °C 11.2 °C 1012.4 hPa NNE 3.4 km/h 6.4 km/h 36 % 0 mm
09:36 27.9 °C 11.1 °C 1012.4 hPa NNE 6.3 km/h 7.4 km/h 35 % 0 mm
09:41 28.2 °C 11.3 °C 1012.4 hPa NNE 6 km/h 8 km/h 35 % 0 mm
09:46 28.3 °C 10.9 °C 1012.1 hPa NNE 8.2 km/h 13 km/h 34 % 0 mm
09:51 28.5 °C 11.1 °C 1012.1 hPa NNE 11.3 km/h 13 km/h 34 % 0 mm
09:56 28.6 °C 11.2 °C 1012.1 hPa NNE 3.5 km/h 6.4 km/h 34 % 0 mm
10:01 28.7 °C 10.8 °C 1012.4 hPa NNE 4.2 km/h 5.6 km/h 33 % 0 mm
10:06 29 °C 11.1 °C 1012.1 hPa NNE 7.9 km/h 11.3 km/h 33 % 0 mm
10:11 29.1 °C 11.2 °C 1012.1 hPa NNE 8.9 km/h 12.9 km/h 33 % 0 mm
10:16 29.2 °C 10.8 °C 1012.1 hPa North 4.5 km/h 7.4 km/h 32 % 0 mm
10:21 29.3 °C 10.9 °C 1012.1 hPa North 4.3 km/h 9.3 km/h 32 % 0 mm
10:26 29.5 °C 11.1 °C 1012.1 hPa NNE 6.9 km/h 9.7 km/h 32 % 0 mm
10:31 29.8 °C 11.3 °C 1012.1 hPa North 6 km/h 8 km/h 32 % 0 mm
10:36 29.9 °C 10.5 °C 1012.1 hPa NNE 11.6 km/h 16.7 km/h 30 % 0 mm
10:41 30.1 °C 10.6 °C 1012.1 hPa NNE 8 km/h 11.1 km/h 30 % 0 mm
10:46 30.2 °C 10.7 °C 1012.1 hPa NNE 5.3 km/h 9.3 km/h 30 % 0 mm
10:51 30.4 °C 10.9 °C 1012.1 hPa North 6.3 km/h 9.3 km/h 30 % 0 mm
10:56 30.8 °C 10.7 °C 1012.1 hPa North 7.6 km/h 11.1 km/h 29 % 0 mm
11:01 30.9 °C 10.8 °C 1012.1 hPa North 2.9 km/h 7.4 km/h 29 % 0 mm
11:06 31.2 °C 10 °C 1012.1 hPa North 7.4 km/h 9.3 km/h 27 % 0 mm
11:11 31.4 °C 10.7 °C 1012.1 hPa North 5.8 km/h 9.7 km/h 28 % 0 mm
11:16 31.8 °C 10.5 °C 1012.1 hPa North 5.1 km/h 8 km/h 27 % 0 mm
11:21 32 °C 10.1 °C 1012.1 hPa North 0.8 km/h 3.2 km/h 26 % 0 mm
11:26 32.4 °C 10.4 °C 1012.1 hPa North 9.7 km/h 11.1 km/h 26 % 0 mm
11:31 32.4 °C 10.4 °C 1012.1 hPa NNW 3.7 km/h 11.1 km/h 26 % 0 mm
11:36 32.5 °C 9.9 °C 1012.1 hPa North 3.4 km/h 9.3 km/h 25 % 0 mm
11:41 32.6 °C 10 °C 1012.1 hPa NNW 5 km/h 5.6 km/h 25 % 0 mm
11:46 33.1 °C 10.4 °C 1011.7 hPa North 10.3 km/h 11.1 km/h 25 % 0 mm
11:51 33.3 °C 10 °C 1011.7 hPa NNW 8.4 km/h 9.7 km/h 24 % 0 mm
11:56 33.2 °C 9.9 °C 1011.7 hPa NNW 4.2 km/h 7.4 km/h 24 % 0 mm
12:01 33.2 °C 8.6 °C 1011.4 hPa NNW 5.8 km/h 9.3 km/h 22 % 0 mm
12:06 33.1 °C 9.2 °C 1011.4 hPa NNW 5.1 km/h 7.4 km/h 23 % 0 mm
12:11 33.4 °C 8.8 °C 1011.4 hPa North 8.9 km/h 9.7 km/h 22 % 0 mm
12:16 33.3 °C 9.3 °C 1011.4 hPa NNE 11.4 km/h 11.4 km/h 23 % 0 mm
12:21 33.6 °C 8.9 °C 1011.4 hPa North 6.8 km/h 14.8 km/h 22 % 0 mm
12:26 33.7 °C 9 °C 1011.4 hPa North 10.3 km/h 12.9 km/h 22 % 0 mm
12:31 33.7 °C 9 °C 1011.4 hPa North 6 km/h 13 km/h 22 % 0 mm
12:36 33.9 °C 8.5 °C 1011.4 hPa NNE 10 km/h 16.7 km/h 21 % 0 mm
12:41 33.9 °C 8.6 °C 1011.4 hPa North 6.8 km/h 9.3 km/h 21 % 0 mm
12:46 34.1 °C 8.6 °C 1011.1 hPa North 3.4 km/h 16.7 km/h 21 % 0 mm
12:51 34.2 °C 8.8 °C 1011.1 hPa North 9.7 km/h 11.1 km/h 21 % 0 mm
12:56 34.4 °C 6.7 °C 1011.1 hPa NW 10.5 km/h 16.7 km/h 18 % 0 mm
13:01 34.4 °C 7.5 °C 1011.1 hPa North 2.7 km/h 5.6 km/h 19 % 0 mm
13:06 34.8 °C 8.6 °C 1011.1 hPa NNW 2.6 km/h 8 km/h 20 % 0 mm
13:11 35 °C 7.9 °C 1011.1 hPa NNW 6.8 km/h 16.7 km/h 19 % 0 mm
13:17 34.8 °C 7.8 °C 1011.1 hPa North 5.8 km/h 11.1 km/h 19 % 0 mm
13:21 34.8 °C 7.8 °C 1010.7 hPa North 6 km/h 9.3 km/h 19 % 0 mm
13:26 34.8 °C 7 °C 1010.7 hPa NNE 5.8 km/h 11.1 km/h 18 % 0 mm
13:32 34.9 °C 7.1 °C 1010.7 hPa NE 4.3 km/h 7.4 km/h 18 % 0 mm
13:37 35.2 °C 8.1 °C 1010.7 hPa North 8.9 km/h 14.8 km/h 19 % 0 mm
13:42 35 °C 7.2 °C 1010.4 hPa North 6.9 km/h 11.1 km/h 18 % 0 mm
13:47 35.2 °C 8.1 °C 1010.4 hPa NNW 10.8 km/h 16.7 km/h 19 % 0 mm
13:52 35.1 °C 7.2 °C 1010.4 hPa NNW 5.8 km/h 6.4 km/h 18 % 0 mm
13:57 35.1 °C 8 °C 1010.4 hPa North 13.5 km/h 18.5 km/h 19 % 0 mm
14:02 35.3 °C 7.4 °C 1010.4 hPa NNW 7.1 km/h 14.8 km/h 18 % 0 mm
14:07 35.3 °C 7.4 °C 1010.4 hPa North 7.7 km/h 13 km/h 18 % 0 mm
14:12 35.3 °C 7.4 °C 1010 hPa North 3.4 km/h 9.7 km/h 18 % 0 mm
14:17 35.7 °C 7.7 °C 1010 hPa North 10.3 km/h 16.7 km/h 18 % 0 mm
14:22 35.9 °C 7.8 °C 1010 hPa North 3.5 km/h 7.4 km/h 18 % 0 mm
14:27 35.9 °C 7 °C 1010 hPa NNW 7.6 km/h 11.3 km/h 17 % 0 mm
14:32 36.2 °C 7.2 °C 1010 hPa NNW 1.1 km/h 3.7 km/h 17 % 0 mm
14:37 36.2 °C 8.1 °C 1010 hPa North 11.4 km/h 18.5 km/h 18 % 0 mm
14:42 35.9 °C 7 °C 1010 hPa North 7.1 km/h 14.8 km/h 17 % 0 mm
14:47 35.7 °C 6.9 °C 1010 hPa North 5 km/h 11.1 km/h 17 % 0 mm
14:52 35.7 °C 6.9 °C 1010 hPa NW 5 km/h 9.3 km/h 17 % 0 mm
14:57 35.6 °C 7.6 °C 1009.7 hPa ENE 6.4 km/h 8 km/h 18 % 0 mm
15:02 36.1 °C 7.2 °C 1009.7 hPa ENE 7.2 km/h 7.4 km/h 17 % 0 mm
15:07 36.4 °C 7.4 °C 1009.7 hPa NNE 7.2 km/h 8 km/h 17 % 0 mm
15:12 36.4 °C 6.6 °C 1009.7 hPa NW 10.3 km/h 13 km/h 16 % 0 mm
15:17 36.2 °C 6.4 °C 1009.7 hPa NW 16.3 km/h 20.4 km/h 16 % 0 mm
15:22 36 °C 6.2 °C 1009.7 hPa NNW 3.5 km/h 6.4 km/h 16 % 0 mm
15:27 36 °C 6.2 °C 1009.7 hPa NNW 12.6 km/h 14.8 km/h 16 % 0 mm
15:32 36.1 °C 6.3 °C 1009.4 hPa NW 9.7 km/h 11.1 km/h 16 % 0 mm
15:37 36.4 °C 5.7 °C 1009.4 hPa North 3.4 km/h 9.3 km/h 15 % 0 mm
15:42 36.6 °C 6.7 °C 1009.4 hPa NW 10.8 km/h 16.7 km/h 16 % 0 mm
15:47 36.2 °C 6.4 °C 1009.4 hPa North 9.2 km/h 14.8 km/h 16 % 0 mm
15:52 36.1 °C 6.3 °C 1009.4 hPa West 5.3 km/h 7.4 km/h 16 % 0 mm
15:57 36.3 °C 6.5 °C 1009.4 hPa WNW 9.3 km/h 11.1 km/h 16 % 0 mm
16:02 36.5 °C 6.6 °C 1009 hPa North 9.3 km/h 18.5 km/h 16 % 0 mm
16:07 36.8 °C 6.8 °C 1009 hPa WNW 11.9 km/h 16.1 km/h 16 % 0 mm
16:12 36.8 °C 6.8 °C 1009 hPa West 7.7 km/h 14.8 km/h 16 % 0 mm
16:17 36.8 °C 6.8 °C 1009 hPa WNW 12.7 km/h 22.2 km/h 16 % 0 mm
16:22 36.4 °C 7.4 °C 1009 hPa WNW 4.7 km/h 7.4 km/h 17 % 0 mm
16:27 36.4 °C 7.4 °C 1009 hPa WNW 6.9 km/h 11.3 km/h 17 % 0 mm
16:32 36.4 °C 7.4 °C 1008.7 hPa Calm   5.6 km/h 17 % 0 mm
16:37 36.3 °C 8.2 °C 1008.7 hPa WSW 6.3 km/h 9.3 km/h 18 % 0 mm
16:42 36.3 °C 7.3 °C 1008.7 hPa WSW 1.8 km/h 5.6 km/h 17 % 0 mm
16:47 36.7 °C 7.7 °C 1008.7 hPa WNW 4.3 km/h 5.6 km/h 17 % 0 mm
16:52 36.8 °C 7.7 °C 1008.7 hPa North 5.8 km/h 7.4 km/h 17 % 0 mm
16:57 36.7 °C 7.7 °C 1008.7 hPa North 3.9 km/h 5.6 km/h 17 % 0 mm
17:02 36.9 °C 7.8 °C 1008.7 hPa NNW 0.5 km/h 3.7 km/h 17 % 0 mm
17:07 37.2 °C 8.1 °C 1008.7 hPa NNW 3.7 km/h 7.4 km/h 17 % 0 mm
17:12 37.3 °C 8.1 °C 1008.7 hPa NNW 2.6 km/h 5.6 km/h 17 % 0 mm
17:17 37.6 °C 8.4 °C 1008.7 hPa NNW 7.7 km/h 9.7 km/h 17 % 0 mm
17:22 37.3 °C 8.2 °C 1008.7 hPa NNW 8.7 km/h 12.9 km/h 17 % 0 mm
17:27 36.9 °C 7.9 °C 1008.7 hPa WNW 8.4 km/h 18.5 km/h 17 % 0 mm
17:32 36.9 °C 7.8 °C 1008.7 hPa NW 7.4 km/h 11.1 km/h 17 % 0 mm
17:37 36.9 °C 7.9 °C 1008.7 hPa NW 8.7 km/h 11.1 km/h 17 % 0 mm
17:42 36.8 °C 7.8 °C 1008.7 hPa NNW 4.2 km/h 14.8 km/h 17 % 0 mm
17:47 37.1 °C 7.9 °C 1008.7 hPa NW 7.4 km/h 7.4 km/h 17 % 0 mm
17:52 37.2 °C 8.1 °C 1008.4 hPa NW 2.1 km/h 9.3 km/h 17 % 0 mm
17:57 37.2 °C 8.1 °C 1008.4 hPa WNW 6.3 km/h 11.1 km/h 17 % 0 mm
18:02 36.9 °C 7.9 °C 1008.4 hPa West 7.2 km/h 9.3 km/h 17 % 0 mm
18:07 36.8 °C 7.7 °C 1008.4 hPa North 6.3 km/h 7.4 km/h 17 % 0 mm
18:12 36.7 °C 7.7 °C 1008.4 hPa North 1.8 km/h 5.6 km/h 17 % 0 mm
18:17 37 °C 7.9 °C 1008.4 hPa WSW 2.9 km/h 5.6 km/h 17 % 0 mm
18:44 36.7 °C 7.7 °C 1008.4 hPa West 10.3 km/h 16.7 km/h 17 % 0 mm
18:49 36.4 °C 8.3 °C 1008.4 hPa West 6.8 km/h 9.3 km/h 18 % 0 mm
18:54 36.3 °C 8.2 °C 1008.4 hPa WSW 5.3 km/h 9.3 km/h 18 % 0 mm
18:59 36.3 °C 8.2 °C 1008.4 hPa Calm   1.9 km/h 18 % 0 mm
19:04 36.3 °C 8.2 °C 1008 hPa SW 8.7 km/h 11.3 km/h 18 % 0 mm
19:09 36.3 °C 8.2 °C 1008.4 hPa SW 3.1 km/h 5.6 km/h 18 % 0 mm
19:14 36.3 °C 8.2 °C 1008.4 hPa North 4.5 km/h 7.4 km/h 18 % 0 mm
19:19 36.3 °C 8.2 °C 1008.4 hPa SW 2.4 km/h 5.6 km/h 18 % 0 mm
19:24 36.1 °C 8.8 °C 1008.4 hPa SSW 11.1 km/h 16.7 km/h 19 % 0 mm
19:29 34.9 °C 8.6 °C 1008.7 hPa South 17.5 km/h 25.9 km/h 20 % 0 mm
19:34 33.7 °C 7.7 °C 1009 hPa SSW 20.3 km/h 35.2 km/h 20 % 0 mm
19:39 33.1 °C 7.8 °C 1009 hPa SSW 13.2 km/h 13.2 km/h 21 % 0 mm
19:44 32.6 °C 8.1 °C 1009.4 hPa SSW 18.3 km/h 27.8 km/h 22 % 0 mm
19:49 32.2 °C 7.8 °C 1009.4 hPa SSW 19.2 km/h 31.5 km/h 22 % 0 mm
19:54 31.9 °C 7.6 °C 1009.4 hPa SSW 17.2 km/h 33.3 km/h 22 % 0 mm
20:00 31.6 °C 7.9 °C 1009.4 hPa SSW 21.9 km/h 27.8 km/h 23 % 0 mm
20:05 31.3 °C 7.7 °C 1009.7 hPa SW 11.7 km/h 22.2 km/h 23 % 0 mm
20:10 31.1 °C 7.5 °C 1009.7 hPa SSW 17.7 km/h 27.8 km/h 23 % 0 mm
20:15 30.8 °C 7.9 °C 1010 hPa SSW 15.1 km/h 22.2 km/h 24 % 0 mm
20:20 30.7 °C 7.8 °C 1010 hPa SSW 16.6 km/h 27.8 km/h 24 % 0 mm
20:25 30.4 °C 7.6 °C 1010 hPa SSW 9.7 km/h 14.8 km/h 24 % 0 mm
20:30 30.2 °C 7.4 °C 1010.4 hPa South 16.4 km/h 25.9 km/h 24 % 0 mm
20:35 30.1 °C 7.3 °C 1010.4 hPa SSW 14.3 km/h 22.2 km/h 24 % 0 mm
20:40 29.9 °C 7.1 °C 1010.4 hPa SSW 13 km/h 18.5 km/h 24 % 0 mm
20:45 29.7 °C 7.6 °C 1010.4 hPa SSW 13.5 km/h 18.5 km/h 25 % 0 mm
20:50 29.6 °C 7.4 °C 1010.4 hPa SSW 11.1 km/h 14.8 km/h 25 % 0 mm
20:55 29.4 °C 7.3 °C 1010.7 hPa SSW 10 km/h 16.1 km/h 25 % 0 mm
21:00 29.2 °C 7.1 °C 1010.7 hPa North 10.8 km/h 19.3 km/h 25 % 0 mm
21:05 28.9 °C 6.9 °C 1010.7 hPa SSW 15.6 km/h 24.1 km/h 25 % 0 mm
21:10 28.8 °C 7.4 °C 1010.7 hPa SSW 7.9 km/h 16.7 km/h 26 % 0 mm
21:15 28.6 °C 7.2 °C 1010.7 hPa SSW 7.6 km/h 9.3 km/h 26 % 0 mm
21:20 28.4 °C 7.1 °C 1010.7 hPa SSW 10.3 km/h 16.7 km/h 26 % 0 mm
21:25 28.2 °C 7.4 °C 1011.1 hPa North 10.1 km/h 14.8 km/h 27 % 0 mm
21:30 28 °C 7.3 °C 1011.1 hPa SSW 11.1 km/h 16.7 km/h 27 % 0 mm
21:35 27.8 °C 7.1 °C 1011.1 hPa SSW 11.9 km/h 18.5 km/h 27 % 0 mm
21:40 27.6 °C 7.4 °C 1011.1 hPa SW 15.1 km/h 22.2 km/h 28 % 0 mm
21:45 27.4 °C 7.3 °C 1011.4 hPa SSW 14.2 km/h 20.4 km/h 28 % 0 mm
21:50 27.3 °C 7.7 °C 1011.4 hPa SSW 10 km/h 13 km/h 29 % 0 mm
21:55 27.2 °C 7.6 °C 1011.4 hPa SSW 8.5 km/h 14.5 km/h 29 % 0 mm
22:00 27 °C 7.4 °C 1011.4 hPa SW 9.7 km/h 18.5 km/h 29 % 0 mm
22:05 26.8 °C 7.8 °C 1011.4 hPa SW 9.3 km/h 13 km/h 30 % 0 mm
22:10 26.7 °C 7.7 °C 1011.4 hPa SSW 6.3 km/h 8 km/h 30 % 0 mm
22:15 26.5 °C 7.5 °C 1011.4 hPa SSW 10.8 km/h 14.8 km/h 30 % 0 mm
22:20 26.4 °C 7.4 °C 1011.7 hPa SSW 7.4 km/h 13 km/h 30 % 0 mm
22:25 26.3 °C 7.3 °C 1011.4 hPa North 10.5 km/h 13 km/h 30 % 0 mm
22:30 26.2 °C 7.3 °C 1011.4 hPa SSW 14 km/h 18.5 km/h 30 % 0 mm
22:35 26.1 °C 7.2 °C 1011.4 hPa South 8.5 km/h 13 km/h 30 % 0 mm
22:40 25.9 °C 7.1 °C 1011.7 hPa South 5.3 km/h 7.4 km/h 30 % 0 mm
22:45 25.8 °C 6.9 °C 1011.7 hPa South 5.5 km/h 5.6 km/h 30 % 0 mm
22:50 25.6 °C 7.2 °C 1011.4 hPa South 4.5 km/h 5.6 km/h 31 % 0 mm
22:55 25.5 °C 7.1 °C 1011.4 hPa South 2.3 km/h 5.6 km/h 31 % 0 mm
23:00 25.3 °C 7.4 °C 1011.4 hPa South 3.5 km/h 7.4 km/h 32 % 0 mm
23:05 24.9 °C 7.5 °C 1011.4 hPa South 4.5 km/h 7.4 km/h 33 % 0 mm
23:10 24.4 °C 7.6 °C 1011.1 hPa South 4.3 km/h 7.4 km/h 34 % 0 mm
23:15 24 °C 7.6 °C 1011.1 hPa South 3.4 km/h 5.6 km/h 35 % 0 mm
23:20 23.7 °C 7.3 °C 1011.1 hPa South 0.3 km/h 1.9 km/h 35 % 0 mm
23:25 23.5 °C 7.6 °C 1011.1 hPa South 1.1 km/h 3.7 km/h 36 % 0 mm
23:30 23.2 °C 7.7 °C 1011.1 hPa South 1 km/h 3.7 km/h 37 % 0 mm
23:35 23 °C 7.5 °C 1010.7 hPa South 2.1 km/h 5.6 km/h 37 % 0 mm
23:40 22.9 °C 7.4 °C 1010.7 hPa South 2.9 km/h 5.6 km/h 37 % 0 mm
23:45 22.8 °C 7.4 °C 1010.7 hPa South 2.7 km/h 4.8 km/h 37 % 0 mm
23:50 22.8 °C 7.3 °C 1010.7 hPa South 4.5 km/h 6.4 km/h 37 % 0 mm
23:55 22.8 °C 6.9 °C 1010.4 hPa South 6 km/h 7.4 km/h 36 % 0 mm
Ararat Weather
Compliments of Weather Underground - 2.25 mb
Click here to send mail.


ABOUT

Live weather data from Ararat, Victoria, Australia, 3377
Data uploaded from Cumulus every 5 minutes to Weather Underground.
This site then downloads the raw data for formatting and display.
Metric and imperial data can be displayed. Graphs and historical data available.
Includes Sun and Moon times and rain image live from BOM.

Check out Ararat Weather on Facebook, Twitter and Google +

Help support ongoing costs by checking out the ads





Follow @AraratWeather